Time;durP1;ratioP1;P1;durP2;ratioP2;P2;SDS_P1;SDS_P2;PMS_P1;PMS_P2;Temp;Humidity;BMP_temperature;BMP_pressure;BME280_temperature;BME280_humidity;BME280_pressure;Samples;Min_cycle;Max_cycle;Signal;HPM_P1;HPM_P2
2023/06/20 00:02:22;;;;;;;;;;;;;;;15.49;95.92;95383.72;5115365;28;944;-56
2023/06/20 00:04:48;;;;;;;;;;;;;;;15.43;96.16;95379.91;5116364;28;1033;-56
2023/06/20 00:07:14;;;;;;;;;;;;;;;15.02;97.88;95380.31;5116584;28;1016;-56
2023/06/20 00:09:40;;;;;;;;;;;;;;;14.82;99.07;95374.63;5116330;28;1214;-56
2023/06/20 00:12:07;;;;;;;;;;;;;;;14.72;100.00;95376.72;5116198;28;1031;-56
2023/06/20 00:14:37;;;;;;;;;;;;;;;14.62;99.98;95372.41;5116045;28;1037;-56
2023/06/20 00:17:05;;;;;;;;;;;;;;;14.63;100.00;95374.09;5116325;28;1043;-56
2023/06/20 00:19:31;;;;;;;;;;;;;;;14.86;99.08;95384.00;5116123;27;1893;-56
2023/06/20 00:21:57;;;;;;;;;;;;;;;14.67;99.46;95379.13;5116434;28;965;-57
2023/06/20 00:24:23;;;;;;;;;;;;;;;14.81;99.58;95375.63;5115950;28;1028;-56
2023/06/20 00:26:49;;;;;;;;;;;;;;;14.88;98.37;95375.75;5115663;28;1603;-57
2023/06/20 00:29:15;;;;;;;;;;;;;;;14.93;98.07;95376.03;5116159;28;1011;-56
2023/06/20 00:31:41;;;;;;;;;;;;;;;14.94;97.79;95375.84;5116144;28;975;-56
2023/06/20 00:34:07;;;;;;;;;;;;;;;14.98;97.44;95377.16;5116069;28;1015;-56
2023/06/20 00:36:33;;;;;;;;;;;;;;;15.09;97.47;95375.88;5115940;28;980;-56
2023/06/20 00:38:59;;;;;;;;;;;;;;;15.02;97.34;95374.94;5115530;28;1902;-57
2023/06/20 00:41:25;;;;;;;;;;;;;;;14.96;97.36;95372.97;5113766;28;2509;-57
2023/06/20 00:43:51;;;;;;;;;;;;;;;14.62;97.86;95367.03;5115570;28;1046;-56
2023/06/20 00:46:19;;;;;;;;;;;;;;;14.45;99.78;95368.16;5115542;28;1994;-57
2023/06/20 00:48:47;;;;;;;;;;;;;;;14.57;99.39;95369.44;5131512;27;1026;-57
2023/06/20 00:51:13;;;;;;;;;;;;;;;14.68;99.29;95372.72;5115463;28;1206;-56
2023/06/20 00:53:41;;;;;;;;;;;;;;;14.76;98.26;95376.19;5115434;28;1037;-56
2023/06/20 00:56:08;;;;;;;;;;;;;;;14.75;98.14;95379.06;5115586;28;1079;-56
2023/06/20 00:58:34;;;;;;;;;;;;;;;14.75;98.60;95379.06;5115461;28;1901;-57
2023/06/20 01:01:00;;;;;;;;;;;;;;;14.51;99.18;95369.28;5115523;28;988;-56
2023/06/20 01:03:26;;;;;;;;;;;;;;;14.36;99.55;95374.59;5115433;28;1011;-56
2023/06/20 01:06:04;;;;;;;;;;;;;;;14.30;100.00;95378.84;5115210;28;1057;-57
2023/06/20 01:08:34;;;;;;;;;;;;;;;14.31;99.69;95377.84;5114196;28;2274;-57
2023/06/20 01:11:04;;;;;;;;;;;;;;;14.41;99.64;95373.06;5094752;28;2115;-57
2023/06/20 01:14:02;;;;;;;;;;;;;;;14.30;98.95;95372.63;5094836;28;1054;-57
2023/06/20 01:16:57;;;;;;;;;;;;;;;13.98;100.00;95364.63;5094639;28;1887;-57
2023/06/20 01:19:29;;;;;;;;;;;;;;;13.98;100.00;95372.69;5093417;28;1902;-56
2023/06/20 01:21:59;;;;;;;;;;;;;;;14.04;100.00;95365.75;5094528;28;2190;-56
2023/06/20 01:24:29;;;;;;;;;;;;;;;14.37;99.57;95363.69;5109424;28;2883;-56
2023/06/20 01:27:15;;;;;;;;;;;;;;;14.33;99.69;95365.06;5114667;28;1435;-57
2023/06/20 01:29:41;;;;;;;;;;;;;;;14.27;99.57;95359.56;5114690;28;1033;-56
2023/06/20 01:32:10;;;;;;;;;;;;;;;14.20;99.07;95372.88;5114914;28;969;-56
2023/06/20 01:34:39;;;;;;;;;;;;;;;14.20;98.94;95365.63;5114820;28;1042;-56
2023/06/20 01:37:07;;;;;;;;;;;;;;;14.16;99.21;95368.88;5114491;28;1065;-56
2023/06/20 01:39:36;;;;;;;;;;;;;;;14.23;99.31;95372.53;5114404;28;1909;-56
2023/06/20 01:42:03;;;;;;;;;;;;;;;14.43;97.10;95380.94;5114493;28;1100;-56
2023/06/20 01:44:31;;;;;;;;;;;;;;;14.34;97.92;95385.56;5114631;28;988;-56
2023/06/20 01:46:58;;;;;;;;;;;;;;;14.16;98.50;95372.38;5114701;28;1039;-56
2023/06/20 01:49:25;;;;;;;;;;;;;;;13.88;99.93;95369.34;5114272;28;1032;-56
2023/06/20 01:51:55;;;;;;;;;;;;;;;13.84;100.00;95381.47;5114382;28;1032;-56
2023/06/20 01:54:24;;;;;;;;;;;;;;;14.06;100.00;95391.44;5114597;28;1035;-56
2023/06/20 01:56:51;;;;;;;;;;;;;;;14.28;98.29;95393.50;5114214;28;1119;-56
2023/06/20 01:59:17;;;;;;;;;;;;;;;14.25;97.55;95387.47;5114337;28;1902;-56
2023/06/20 02:01:45;;;;;;;;;;;;;;;14.23;97.92;95384.13;5114392;28;1074;-56
2023/06/20 02:04:11;;;;;;;;;;;;;;;14.19;98.60;95384.63;5114364;28;1007;-56
2023/06/20 02:06:38;;;;;;;;;;;;;;;14.17;98.65;95395.59;5114045;28;1049;-56
2023/06/20 02:09:05;;;;;;;;;;;;;;;14.17;99.03;95395.59;5114387;28;1027;-56
2023/06/20 02:11:31;;;;;;;;;;;;;;;14.18;98.20;95389.19;5113924;28;1050;-56
2023/06/20 02:13:58;;;;;;;;;;;;;;;14.04;98.40;95392.66;5114183;28;1005;-56
2023/06/20 02:16:25;;;;;;;;;;;;;;;14.04;98.71;95390.78;5114099;28;980;-56
2023/06/20 02:18:51;;;;;;;;;;;;;;;14.06;98.40;95396.00;5114070;28;1909;-56
2023/06/20 02:21:22;;;;;;;;;;;;;;;14.03;98.71;95399.03;5113867;28;957;-56
2023/06/20 02:23:50;;;;;;;;;;;;;;;13.97;98.12;95397.88;5114160;28;1032;-56
2023/06/20 02:26:17;;;;;;;;;;;;;;;13.96;98.71;95415.03;5113388;28;1395;-56
2023/06/20 02:28:49;;;;;;;;;;;;;;;13.86;98.65;95406.34;5113817;28;1084;-56
2023/06/20 02:31:17;;;;;;;;;;;;;;;13.90;98.49;95412.19;5113699;28;1053;-56
2023/06/20 02:33:44;;;;;;;;;;;;;;;13.86;98.48;95412.53;5113890;28;1200;-56
2023/06/20 02:36:12;;;;;;;;;;;;;;;13.58;99.52;95406.78;5113004;28;2414;-56
2023/06/20 02:38:39;;;;;;;;;;;;;;;13.44;100.00;95416.38;5097451;28;2857;-56
2023/06/20 02:41:05;;;;;;;;;;;;;;;13.31;100.00;95416.09;5092506;28;1052;-56
2023/06/20 02:43:31;;;;;;;;;;;;;;;13.32;100.00;95415.09;5093468;28;1039;-56
2023/06/20 02:46:19;;;;;;;;;;;;;;;13.24;100.00;95409.69;5093476;28;1079;-56
2023/06/20 02:48:54;;;;;;;;;;;;;;;13.41;100.00;95414.06;5093442;28;2203;-56
2023/06/20 02:51:23;;;;;;;;;;;;;;;13.60;100.00;95412.84;5093461;28;984;-56
2023/06/20 02:54:18;;;;;;;;;;;;;;;13.67;100.00;95415.66;5093421;28;1072;-56
2023/06/20 02:56:47;;;;;;;;;;;;;;;13.63;100.00;95423.22;5038538;28;1174;-56
2023/06/20 02:59:13;;;;;;;;;;;;;;;13.66;100.00;95430.94;5093158;28;1989;-56
2023/06/20 03:01:44;;;;;;;;;;;;;;;13.84;99.40;95432.53;5093136;28;1048;-56
2023/06/20 03:04:12;;;;;;;;;;;;;;;13.98;97.80;95439.88;5093427;28;1027;-57
2023/06/20 03:06:42;;;;;;;;;;;;;;;13.94;97.41;95438.53;5093299;28;953;-57
2023/06/20 03:09:09;;;;;;;;;;;;;;;13.89;98.66;95438.25;5093123;28;1701;-56
2023/06/20 03:11:35;;;;;;;;;;;;;;;13.95;99.24;95431.34;5093299;28;981;-56
2023/06/20 03:14:03;;;;;;;;;;;;;;;13.80;98.31;95439.28;5093294;28;1024;-57
2023/06/20 03:16:30;;;;;;;;;;;;;;;13.50;99.58;95435.53;5093185;28;1059;-56
2023/06/20 03:18:57;;;;;;;;;;;;;;;13.34;100.00;95436.41;5093203;28;1906;-56
2023/06/20 03:21:23;;;;;;;;;;;;;;;13.31;100.00;95434.88;5092819;28;1029;-56
2023/06/20 03:23:49;;;;;;;;;;;;;;;13.42;100.00;95442.59;5093226;28;1040;-56
2023/06/20 03:26:15;;;;;;;;;;;;;;;13.57;100.00;95440.03;5102952;28;1815;-56
2023/06/20 03:28:41;;;;;;;;;;;;;;;13.86;100.00;95441.28;5113183;28;1231;-57
2023/06/20 03:31:07;;;;;;;;;;;;;;;14.04;100.00;95449.09;5113485;28;1066;-57
2023/06/20 03:33:33;;;;;;;;;;;;;;;14.19;100.00;95441.97;5113208;28;1230;-57
2023/06/20 03:36:00;;;;;;;;;;;;;;;14.30;100.00;95448.78;5112327;28;2472;-56
2023/06/20 03:38:26;;;;;;;;;;;;;;;14.34;100.00;95451.94;5099416;28;2826;-57
2023/06/20 03:40:54;;;;;;;;;;;;;;;14.28;100.00;95449.97;5096427;28;1050;-56
2023/06/20 03:43:20;;;;;;;;;;;;;;;14.22;100.00;95454.22;5096323;28;1104;-56
2023/06/20 03:45:46;;;;;;;;;;;;;;;14.22;100.00;95452.34;5096332;28;1044;-57
2023/06/20 03:48:12;;;;;;;;;;;;;;;14.14;100.00;95449.72;5095066;28;1117;-57
2023/06/20 03:50:38;;;;;;;;;;;;;;;14.00;100.00;95455.81;5096254;28;1005;-57
2023/06/20 03:53:04;;;;;;;;;;;;;;;14.12;100.00;95451.75;5096266;28;1037;-57
2023/06/20 03:55:30;;;;;;;;;;;;;;;14.45;100.00;95456.94;5096447;28;1047;-57
2023/06/20 03:57:56;;;;;;;;;;;;;;;14.81;100.00;95456.38;5096464;28;973;-56
2023/06/20 04:00:22;;;;;;;;;;;;;;;14.97;98.99;95469.72;5095899;28;1985;-57
2023/06/20 04:02:49;;;;;;;;;;;;;;;14.95;100.00;95462.81;5096263;28;1047;-57
2023/06/20 04:05:15;;;;;;;;;;;;;;;15.00;99.05;95463.97;5096211;28;952;-57
2023/06/20 04:07:43;;;;;;;;;;;;;;;15.22;99.57;95458.75;5096137;28;925;-56
2023/06/20 04:10:10;;;;;;;;;;;;;;;15.53;97.86;95465.84;5096005;28;1016;-56
2023/06/20 04:12:37;;;;;;;;;;;;;;;15.73;97.32;95458.94;5096068;28;985;-57
2023/06/20 04:15:03;;;;;;;;;;;;;;;15.86;97.51;95452.03;5096063;28;1074;-57
2023/06/20 04:17:29;;;;;;;;;;;;;;;15.78;99.67;95463.75;5095694;28;1061;-57
2023/06/20 04:19:56;;;;;;;;;;;;;;;15.79;98.98;95463.56;5095613;28;1902;-56
2023/06/20 04:22:26;;;;;;;;;;;;;;;15.97;98.95;95456.97;5095532;28;1056;-57
2023/06/20 04:24:53;;;;;;;;;;;;;;;16.23;96.78;95461.88;5095941;28;976;-57
2023/06/20 04:27:19;;;;;;;;;;;;;;;16.53;95.11;95465.34;5130042;27;1484;-57
2023/06/20 04:29:45;;;;;;;;;;;;;;;16.39;97.19;95471.63;5116240;28;1117;-57
2023/06/20 04:32:11;;;;;;;;;;;;;;;16.41;97.32;95472.28;5115725;28;1112;-57
2023/06/20 04:34:37;;;;;;;;;;;;;;;16.50;96.18;95470.28;5115987;28;1149;-57
2023/06/20 04:37:03;;;;;;;;;;;;;;;16.72;93.36;95468.47;5115741;28;1061;-57
2023/06/20 04:39:29;;;;;;;;;;;;;;;16.82;92.79;95473.53;5115796;28;1996;-57
2023/06/20 04:41:55;;;;;;;;;;;;;;;16.91;93.17;95461.63;5115532;28;1046;-57
2023/06/20 04:44:21;;;;;;;;;;;;;;;17.14;91.20;95473.03;5115574;28;1120;-57
2023/06/20 04:46:47;;;;;;;;;;;;;;;17.13;91.42;95473.22;5115881;28;1003;-56
2023/06/20 04:49:13;;;;;;;;;;;;;;;17.22;91.03;95472.06;5115222;28;964;-56
2023/06/20 04:51:42;;;;;;;;;;;;;;;17.29;92.29;95472.16;5115641;28;953;-57
2023/06/20 04:54:08;;;;;;;;;;;;;;;17.29;89.36;95467.56;5115718;28;1048;-57
2023/06/20 04:56:40;;;;;;;;;;;;;;;17.26;89.57;95478.75;5115192;28;1863;-57
2023/06/20 04:59:06;;;;;;;;;;;;;;;17.43;90.31;95483.88;5115127;28;1913;-57
2023/06/20 05:01:32;;;;;;;;;;;;;;;17.48;89.38;95489.56;5115136;28;1112;-57
2023/06/20 05:03:58;;;;;;;;;;;;;;;17.66;90.66;95489.91;5115005;28;1031;-56
2023/06/20 05:06:24;;;;;;;;;;;;;;;17.75;91.66;95490.56;5115359;28;984;-57
2023/06/20 05:08:52;;;;;;;;;;;;;;;17.76;90.98;95484.97;5115141;28;1059;-57
2023/06/20 05:11:18;;;;;;;;;;;;;;;18.06;89.70;95484.78;5114875;28;1042;-56
2023/06/20 05:13:44;;;;;;;;;;;;;;;18.17;88.81;95483.38;5115119;28;980;-56
2023/06/20 05:16:10;;;;;;;;;;;;;;;18.24;87.15;95483.41;5115075;28;1050;-56
2023/06/20 05:18:36;;;;;;;;;;;;;;;18.34;84.88;95481.16;5115144;27;1906;-56
2023/06/20 05:21:02;;;;;;;;;;;;;;;18.39;87.15;95486.81;5114965;28;1027;-56
2023/06/20 05:23:28;;;;;;;;;;;;;;;18.37;85.96;95488.88;5114762;28;1027;-56
2023/06/20 05:25:54;;;;;;;;;;;;;;;18.56;86.09;95490.00;5114450;28;1313;-56
2023/06/20 05:28:20;;;;;;;;;;;;;;;18.46;84.93;95490.41;5113814;28;1293;-56
2023/06/20 05:30:46;;;;;;;;;;;;;;;18.56;82.16;95484.59;5114742;28;979;-56
2023/06/20 05:33:12;;;;;;;;;;;;;;;18.60;84.30;95485.03;5114652;28;1040;-56
2023/06/20 05:35:39;;;;;;;;;;;;;;;18.50;85.99;95478.13;5114541;28;1047;-56
2023/06/20 05:38:05;;;;;;;;;;;;;;;18.58;81.99;95481.69;5114735;28;1020;-56
2023/06/20 05:40:31;;;;;;;;;;;;;;;18.76;83.97;95486.53;5113385;28;2495;-57
2023/06/20 05:42:57;;;;;;;;;;;;;;;19.02;84.89;95481.19;5094955;28;2916;-56
2023/06/20 05:45:23;;;;;;;;;;;;;;;19.06;83.58;95481.63;5102675;28;2569;-56
2023/06/20 05:47:49;;;;;;;;;;;;;;;19.00;82.45;95486.00;5094224;28;1032;-56
2023/06/20 05:50:15;;;;;;;;;;;;;;;19.14;82.06;95486.84;5094086;28;1036;-56
2023/06/20 05:52:42;;;;;;;;;;;;;;;19.50;80.34;95472.91;5093910;28;1063;-56
2023/06/20 05:55:08;;;;;;;;;;;;;;;19.48;79.80;95480.44;5093714;28;1040;-57
2023/06/20 05:57:34;;;;;;;;;;;;;;;19.41;79.57;95476.06;5093981;28;1227;-56
2023/06/20 06:00:00;;;;;;;;;;;;;;;19.60;78.19;95479.81;5093288;28;1993;-56
2023/06/20 06:02:26;;;;;;;;;;;;;;;19.66;78.49;95474.34;5093665;28;1028;-57
2023/06/20 06:04:52;;;;;;;;;;;;;;;19.68;78.88;95477.69;5093835;28;940;-57
2023/06/20 06:07:18;;;;;;;;;;;;;;;19.85;78.85;95477.28;5094020;28;1050;-57
2023/06/20 06:09:44;;;;;;;;;;;;;;;19.79;77.57;95467.28;5093834;28;1036;-57
2023/06/20 06:12:10;;;;;;;;;;;;;;;20.04;78.09;95468.28;5093561;28;1011;-56
2023/06/20 06:14:36;;;;;;;;;;;;;;;20.22;78.97;95474.91;5094212;28;2311;-57
2023/06/20 06:17:02;;;;;;;;;;;;;;;20.27;78.17;95439.81;5112701;28;2881;-57
2023/06/20 06:19:28;;;;;;;;;;;;;;;20.58;78.82;95460.78;5113806;28;1890;-57
2023/06/20 06:21:54;;;;;;;;;;;;;;;20.80;77.89;95464.03;5113939;28;969;-57
2023/06/20 06:24:38;;;;;;;;;;;;;;;21.01;78.53;95465.59;5114012;28;1053;-57
2023/06/20 06:27:05;;;;;;;;;;;;;;;21.05;79.18;95472.25;5113716;28;1408;-57
2023/06/20 06:29:31;;;;;;;;;;;;;;;21.26;76.28;95472.94;5113921;28;1048;-57
2023/06/20 06:31:58;;;;;;;;;;;;;;;21.47;74.47;95474.50;5113629;28;1121;-57
2023/06/20 06:34:26;;;;;;;;;;;;;;;21.39;74.40;95472.03;5113486;28;1113;-57
2023/06/20 06:36:52;;;;;;;;;;;;;;;21.50;74.31;95479.50;5113609;28;1625;-56
2023/06/20 06:39:18;;;;;;;;;;;;;;;21.48;75.04;95475.34;5113722;28;1909;-57
2023/06/20 06:41:47;;;;;;;;;;;;;;;21.52;75.30;95477.41;5113715;28;1020;-57
2023/06/20 06:56:36;;;;;;;;;;;;;;;22.19;72.19;95463.16;5111147;27;1264;-57
2023/06/20 06:59:02;;;;;;;;;;;;;;;21.98;74.28;95467.97;5110821;28;925;-57
2023/06/20 07:01:28;;;;;;;;;;;;;;;22.10;73.82;95468.06;5110849;28;1331;-57
2023/06/20 07:03:55;;;;;;;;;;;;;;;22.25;72.53;95467.72;5110918;28;1905;-57
2023/06/20 07:06:21;;;;;;;;;;;;;;;22.65;73.82;95459.09;5110927;28;965;-57
2023/06/20 07:08:47;;;;;;;;;;;;;;;22.56;73.22;95458.56;5110993;28;1019;-57
2023/06/20 07:11:13;;;;;;;;;;;;;;;22.57;74.52;95470.28;5110629;28;1087;-57
2023/06/20 07:13:39;;;;;;;;;;;;;;;22.68;74.75;95474.16;5110623;28;968;-57
2023/06/20 07:16:05;;;;;;;;;;;;;;;22.74;73.41;95471.31;5110535;28;940;-57
2023/06/20 07:18:32;;;;;;;;;;;;;;;22.84;75.67;95461.75;5109355;28;1294;-57
2023/06/20 07:20:59;;;;;;;;;;;;;;;23.13;73.19;95458.25;5110449;28;1123;-57
2023/06/20 07:23:25;;;;;;;;;;;;;;;23.28;73.39;95457.00;5110687;28;1004;-57
2023/06/20 07:25:51;;;;;;;;;;;;;;;23.38;72.41;95459.97;5110255;28;1914;-57
2023/06/20 07:28:17;;;;;;;;;;;;;;;23.65;70.54;95456.81;5110297;28;1042;-57
2023/06/20 07:30:43;;;;;;;;;;;;;;;23.65;70.91;95456.81;5110506;28;1056;-57
2023/06/20 07:33:09;;;;;;;;;;;;;;;23.67;70.86;95460.13;5110395;28;996;-57
2023/06/20 07:35:36;;;;;;;;;;;;;;;23.70;69.51;95456.94;5110500;28;984;-57
2023/06/20 07:38:02;;;;;;;;;;;;;;;24.02;69.76;95457.44;5108986;28;1048;-57
2023/06/20 07:40:28;;;;;;;;;;;;;;;24.06;69.13;95455.09;5110292;28;1040;-57
2023/06/20 07:42:54;;;;;;;;;;;;;;;24.09;70.68;95447.25;5110337;28;1040;-57
2023/06/20 07:45:20;;;;;;;;;;;;;;;24.12;69.40;95457.66;5110047;28;1992;-57
2023/06/20 07:47:46;;;;;;;;;;;;;;;24.18;68.26;95453.16;5110125;28;1027;-57
2023/06/20 07:50:12;;;;;;;;;;;;;;;24.41;71.76;95451.47;5109794;28;1103;-57
2023/06/20 07:52:40;;;;;;;;;;;;;;;24.51;67.98;95452.53;5109778;28;1618;-57
2023/06/20 07:55:06;;;;;;;;;;;;;;;24.57;71.47;95458.94;5109833;28;1372;-57
2023/06/20 07:57:32;;;;;;;;;;;;;;;24.72;67.56;95462.00;5095626;28;956;-57
2023/06/20 07:59:58;;;;;;;;;;;;;;;24.74;68.04;95465.31;5094761;28;2512;-57
2023/06/20 08:02:25;;;;;;;;;;;;;;;24.84;68.59;95459.22;5095758;28;1057;-57
2023/06/20 08:04:51;;;;;;;;;;;;;;;24.79;67.72;95458.28;5095959;28;1910;-58
2023/06/20 08:07:17;;;;;;;;;;;;;;;24.91;68.53;95465.38;5096282;28;1007;-57
2023/06/20 08:09:43;;;;;;;;;;;;;;;25.20;67.38;95470.00;5095923;28;1104;-58
2023/06/20 08:12:10;;;;;;;;;;;;;;;25.29;67.72;95468.56;5096009;28;1189;-57
2023/06/20 08:14:37;;;;;;;;;;;;;;;25.47;68.59;95462.03;5095667;28;1044;-57
2023/06/20 08:17:03;;;;;;;;;;;;;;;25.61;66.88;95459.78;5095977;28;1041;-57
2023/06/20 08:19:29;;;;;;;;;;;;;;;25.62;65.87;95458.72;5094054;28;2498;-57
2023/06/20 08:21:55;;;;;;;;;;;;;;;25.55;63.23;95445.19;5094754;28;2291;-57
2023/06/20 08:24:21;;;;;;;;;;;;;;;25.82;63.80;95453.59;5094372;28;2775;-57
2023/06/20 08:26:47;;;;;;;;;;;;;;;26.13;63.39;95448.59;5095651;28;1213;-57
2023/06/20 08:29:14;;;;;;;;;;;;;;;26.29;63.44;95447.75;5095485;28;960;-58
2023/06/20 08:31:40;;;;;;;;;;;;;;;26.10;64.26;95443.63;5095484;28;1092;-58
2023/06/20 08:34:06;;;;;;;;;;;;;;;26.06;61.92;95454.25;5094410;28;2405;-57
2023/06/20 08:36:32;;;;;;;;;;;;;;;26.13;61.53;95456.00;5079237;28;2842;-58
2023/06/20 08:38:59;;;;;;;;;;;;;;;26.27;63.13;95460.88;5075248;28;1043;-57
2023/06/20 08:41:25;;;;;;;;;;;;;;;26.38;59.99;95463.75;5075145;28;1027;-58
2023/06/20 08:43:52;;;;;;;;;;;;;;;26.50;56.73;95461.69;5075050;28;1986;-57
2023/06/20 08:46:18;;;;;;;;;;;;;;;26.53;55.81;95463.94;5075231;28;972;-57
2023/06/20 08:48:46;;;;;;;;;;;;;;;26.76;58.46;95464.81;5074904;28;1107;-58
2023/06/20 08:51:14;;;;;;;;;;;;;;;26.87;55.40;95461.94;5074829;28;1040;-58
2023/06/20 08:53:42;;;;;;;;;;;;;;;26.91;53.47;95461.44;5087192;28;1819;-58
2023/06/20 08:56:08;;;;;;;;;;;;;;;26.88;52.46;95466.34;5095085;28;1099;-58
2023/06/20 08:58:34;;;;;;;;;;;;;;;26.94;53.52;95467.22;5095303;28;1032;-58
2023/06/20 09:01:00;;;;;;;;;;;;;;;27.03;52.72;95459.34;5095236;28;948;-58
2023/06/20 09:03:26;;;;;;;;;;;;;;;27.11;51.25;95461.66;5094828;28;1087;-58
2023/06/20 09:05:52;;;;;;;;;;;;;;;27.12;51.05;95457.00;5095016;28;1901;-58
2023/06/20 09:08:18;;;;;;;;;;;;;;;27.14;49.76;95458.38;5093159;28;1044;-57
2023/06/20 09:10:44;;;;;;;;;;;;;;;27.17;53.28;95454.31;5094727;28;1229;-58
2023/06/20 09:13:11;;;;;;;;;;;;;;;27.21;51.71;95445.28;5093708;28;2261;-58
2023/06/20 09:15:38;;;;;;;;;;;;;;;27.39;52.02;95438.63;5082364;28;2854;-58
2023/06/20 09:18:06;;;;;;;;;;;;;;;27.29;52.13;95448.69;5075102;28;2574;-58
2023/06/20 09:20:32;;;;;;;;;;;;;;;27.31;52.23;95436.34;5093607;28;2887;-57
2023/06/20 09:22:59;;;;;;;;;;;;;;;27.27;51.90;95429.72;5094731;28;1048;-58
2023/06/20 09:25:26;;;;;;;;;;;;;;;27.39;53.16;95435.88;5094389;28;1990;-58
2023/06/20 09:27:54;;;;;;;;;;;;;;;27.42;51.27;95432.63;5094614;28;961;-58
2023/06/20 09:30:21;;;;;;;;;;;;;;;27.44;53.02;95430.44;5094532;28;1025;-58
2023/06/20 09:32:47;;;;;;;;;;;;;;;27.56;50.57;95434.94;5094675;28;1047;-58
2023/06/20 09:35:14;;;;;;;;;;;;;;;27.66;47.99;95440.53;5094302;28;1032;-58
2023/06/20 09:37:41;;;;;;;;;;;;;;;27.55;48.59;95434.13;5094582;28;1020;-58
2023/06/20 09:40:11;;;;;;;;;;;;;;;27.44;49.22;95435.13;5093305;28;2559;-58
2023/06/20 09:42:38;;;;;;;;;;;;;;;27.46;49.11;95428.25;5073758;28;1055;-58
2023/06/20 09:45:04;;;;;;;;;;;;;;;27.66;48.49;95432.28;5073985;28;1902;-58
2023/06/20 09:47:30;;;;;;;;;;;;;;;27.77;48.83;95435.94;5074047;28;992;-58
2023/06/20 09:49:59;;;;;;;;;;;;;;;27.80;46.45;95440.91;5074060;28;973;-58
2023/06/20 09:52:31;;;;;;;;;;;;;;;27.73;44.86;95432.06;5075159;28;1451;-58
2023/06/20 09:55:02;;;;;;;;;;;;;;;27.76;45.00;95437.03;5073786;28;2351;-59
2023/06/20 09:57:42;;;;;;;;;;;;;;;27.89;46.83;95422.88;5081304;28;2854;-58
2023/06/20 10:00:12;;;;;;;;;;;;;;;27.92;44.26;95430.56;5073939;28;1032;-58
2023/06/20 10:02:40;;;;;;;;;;;;;;;27.95;46.53;95424.56;5074180;28;973;-60
2023/06/20 10:05:08;;;;;;;;;;;;;;;28.00;49.55;95418.25;5073451;28;1991;-58
2023/06/20 10:07:36;;;;;;;;;;;;;;;28.03;44.91;95425.97;5073365;28;1057;-58
2023/06/20 10:10:03;;;;;;;;;;;;;;;28.07;46.29;95416.13;5073550;28;1011;-58
2023/06/20 10:12:29;;;;;;;;;;;;;;;28.13;49.17;95409.53;5077247;28;2506;-58
2023/06/20 10:14:56;;;;;;;;;;;;;;;28.27;47.87;95412.66;5092013;28;2847;-58
2023/06/20 10:17:51;;;;;;;;;;;;;;;28.29;45.95;95418.72;5093608;28;1124;-58
2023/06/20 10:20:37;;;;;;;;;;;;;;;28.38;49.67;95416.28;5076263;28;2843;-58
2023/06/20 10:23:05;;;;;;;;;;;;;;;28.41;46.77;95410.25;5073642;28;1024;-58
2023/06/20 10:25:32;;;;;;;;;;;;;;;28.41;44.51;95424.00;5073444;28;1910;-58
2023/06/20 10:28:02;;;;;;;;;;;;;;;28.55;48.15;95405.13;5072405;28;2832;-58
2023/06/20 10:30:49;;;;;;;;;;;;;;;28.76;48.95;95406.03;5072826;28;1016;-58
2023/06/20 10:33:22;;;;;;;;;;;;;;;28.90;48.15;95409.13;5073361;28;1035;-58
2023/06/20 10:35:49;;;;;;;;;;;;;;;28.80;47.62;95407.16;5073179;28;1119;-58
2023/06/20 10:38:15;;;;;;;;;;;;;;;28.64;47.99;95409.00;5073239;28;1044;-58
2023/06/20 10:40:41;;;;;;;;;;;;;;;28.39;47.11;95407.78;5073386;28;997;-58
2023/06/20 10:43:08;;;;;;;;;;;;;;;28.43;45.72;95410.81;5073014;28;1028;-57
2023/06/20 10:45:34;;;;;;;;;;;;;;;28.34;44.78;95404.16;5073216;28;1910;-58
2023/06/20 10:48:02;;;;;;;;;;;;;;;28.41;44.13;95402.81;5073053;28;1062;-58
2023/06/20 10:50:28;;;;;;;;;;;;;;;28.58;47.25;95391.66;5073196;28;969;-59
2023/06/20 10:52:54;;;;;;;;;;;;;;;28.53;43.13;95399.06;5078654;28;1668;-59
2023/06/20 10:55:23;;;;;;;;;;;;;;;28.55;43.97;95394.97;5093068;28;1404;-58
2023/06/20 10:57:50;;;;;;;;;;;;;;;28.40;45.35;95389.34;5093455;28;1012;-59
2023/06/20 11:00:18;;;;;;;;;;;;;;;28.16;45.43;95387.03;5093260;28;1329;-58
2023/06/20 11:02:48;;;;;;;;;;;;;;;27.99;45.82;95389.13;5091988;28;1257;-58
2023/06/20 11:05:14;;;;;;;;;;;;;;;27.76;47.99;95388.41;5092026;28;1991;-58
2023/06/20 11:07:50;;;;;;;;;;;;;;;27.50;47.12;95381.06;5093376;28;948;-58
2023/06/20 11:10:16;;;;;;;;;;;;;;;27.36;50.82;95383.44;5093355;28;1004;-58
2023/06/20 11:12:42;;;;;;;;;;;;;;;27.29;45.67;95382.81;5093391;28;1152;-58
2023/06/20 11:15:24;;;;;;;;;;;;;;;27.38;45.03;95386.75;5093359;28;1040;-57
2023/06/20 11:17:50;;;;;;;;;;;;;;;27.19;45.57;95378.03;5093087;28;1060;-57
2023/06/20 11:20:17;;;;;;;;;;;;;;;27.26;45.32;95376.75;5093099;28;1215;-58
2023/06/20 11:22:47;;;;;;;;;;;;;;;27.29;47.25;95364.41;5093010;28;1076;-57
2023/06/20 11:25:23;;;;;;;;;;;;;;;27.31;45.29;95373.22;5091654;28;1910;-58
2023/06/20 11:27:49;;;;;;;;;;;;;;;27.72;45.95;95365.31;5093038;28;981;-58
2023/06/20 11:30:15;;;;;;;;;;;;;;;28.10;47.97;95368.06;5092872;28;1505;-57
2023/06/20 11:32:56;;;;;;;;;;;;;;;28.28;48.15;95361.25;5094987;28;1192;-58
2023/06/20 11:35:22;;;;;;;;;;;;;;;28.41;45.79;95369.00;5096760;28;1040;-58
2023/06/20 11:37:48;;;;;;;;;;;;;;;28.63;43.84;95371.63;5096657;28;1096;-58
2023/06/20 11:40:14;;;;;;;;;;;;;;;28.71;44.98;95370.25;5096607;28;944;-59
2023/06/20 11:42:40;;;;;;;;;;;;;;;28.85;45.47;95362.31;5095411;28;913;-60
2023/06/20 11:45:10;;;;;;;;;;;;;;;28.89;48.53;95358.72;5094923;28;2937;-59
2023/06/20 11:47:36;;;;;;;;;;;;;;;29.02;46.94;95360.94;5095695;28;2956;-60
2023/06/20 11:50:02;;;;;;;;;;;;;;;29.09;49.29;95354.38;5095749;28;2923;-59
2023/06/20 11:52:29;;;;;;;;;;;;;;;29.12;46.08;95353.81;5096277;28;1518;-58
2023/06/20 11:54:58;;;;;;;;;;;;;;;28.94;44.65;95353.25;5096366;28;1903;-58
2023/06/20 11:57:28;;;;;;;;;;;;;;;28.75;49.21;95338.34;5096251;28;1092;-58
2023/06/20 11:59:55;;;;;;;;;;;;;;;28.80;46.85;95343.88;5096427;28;1039;-58
2023/06/20 12:02:24;;;;;;;;;;;;;;;28.72;49.31;95336.97;5096250;28;1044;-59
2023/06/20 12:04:56;;;;;;;;;;;;;;;28.43;46.50;95351.13;5096072;28;1906;-58
2023/06/20 12:07:25;;;;;;;;;;;;;;;28.02;47.65;95350.97;5096149;28;1052;-58
2023/06/20 12:09:51;;;;;;;;;;;;;;;27.85;48.20;95347.53;5096132;28;1106;-58
2023/06/20 12:12:17;;;;;;;;;;;;;;;28.11;49.00;95344.94;5095199;28;2208;-59
2023/06/20 12:14:47;;;;;;;;;;;;;;;28.23;46.68;95348.31;5095247;28;2753;-61
2023/06/20 12:17:13;;;;;;;;;;;;;;;28.22;50.23;95335.66;5092290;28;2492;-58
2023/06/20 12:19:48;;;;;;;;;;;;;;;28.32;48.97;95338.44;5095947;28;1100;-58
2023/06/20 12:22:15;;;;;;;;;;;;;;;28.35;47.68;95340.66;5095993;28;1032;-63
2023/06/20 12:24:41;;;;;;;;;;;;;;;28.09;49.97;95336.16;5091269;28;2932;-58
2023/06/20 12:27:07;;;;;;;;;;;;;;;28.18;48.66;95337.31;5075762;28;1115;-58
2023/06/20 12:29:33;;;;;;;;;;;;;;;28.43;48.32;95339.31;5074171;28;946;-58
2023/06/20 12:31:59;;;;;;;;;;;;;;;28.40;46.68;95339.84;5075719;28;1059;-58
2023/06/20 12:34:25;;;;;;;;;;;;;;;28.33;47.77;95337.38;5075275;28;1082;-58
2023/06/20 12:36:51;;;;;;;;;;;;;;;28.41;48.25;95334.09;5075298;28;1300;-58
2023/06/20 12:39:17;;;;;;;;;;;;;;;28.55;47.79;95334.47;5075208;28;984;-58
2023/06/20 12:41:43;;;;;;;;;;;;;;;28.57;45.75;95337.75;5075097;28;1049;-59
2023/06/20 12:44:10;;;;;;;;;;;;;;;28.61;48.31;95325.13;5090457;28;1906;-58
2023/06/20 12:46:37;;;;;;;;;;;;;;;28.74;45.23;95328.44;5075389;28;977;-58
2023/06/20 12:49:03;;;;;;;;;;;;;;;28.78;45.96;95321.31;5075290;28;961;-58
2023/06/20 12:51:29;;;;;;;;;;;;;;;28.77;47.62;95319.66;5074817;28;1099;-58
2023/06/20 12:53:55;;;;;;;;;;;;;;;28.74;49.67;95312.78;5090225;28;2507;-58
2023/06/20 12:56:22;;;;;;;;;;;;;;;28.99;47.95;95320.22;5095025;28;1085;-59
2023/06/20 12:58:48;;;;;;;;;;;;;;;29.19;45.49;95316.69;5095041;28;1096;-59
2023/06/20 13:01:14;;;;;;;;;;;;;;;29.22;45.78;95326.34;5095245;28;980;-58
2023/06/20 13:03:40;;;;;;;;;;;;;;;29.21;46.11;95324.69;5093992;28;961;-58
2023/06/20 13:06:07;;;;;;;;;;;;;;;28.99;46.79;95320.22;5095053;28;1921;-58
2023/06/20 13:20:39;;;;;;;;;;;;;;;28.80;48.46;95302.59;5131904;27;1240;-53
2023/06/20 13:23:05;;;;;;;;;;;;;;;28.73;45.76;95304.78;5131976;27;967;-53
2023/06/20 13:25:32;;;;;;;;;;;;;;;28.68;47.57;95300.09;5131361;27;2124;-53